KGRK - Killeen-Ft Hood Rgnl, TX, US

Issued at 0000 UTC 15 Aug 2020
Updated at 0138 UTC 15 Aug 2020
Potential Impact None Slight Moderate High
Time0058Z 15/02Z 15/03Z 15/04Z 15/05Z 15/06Z 15/07Z 15/08Z 15/09Z 15/10Z 15/11Z 15/12Z 15/13Z 15/14Z>>
Type OBS PRVL PRVL PRVL PRVL PRVL PRVL PRVL PRVL PRVL PRVL PRVL PRVL PRVL
VIS 10 >6 >6 >6 >6 >6 >6 >6 >6 >6 >6 >6 >6 >6
CIG -- -- -- -- -- -- -- -- -- -- -- -- -- --
Cover CLR SKC SKC SKC SKC SKC SKC SKC SKC SKC SKC SKC SKC SKC
FltCat VFR VFR VFR VFR VFR VFR VFR VFR VFR VFR VFR VFR VFR VFR
WX -- -- -- -- -- -- -- -- -- -- -- -- -- --
WDir 140 190 190 190 190 190 190 190 190 190 190 190 190 190
WSpd 14 9 9 9 9 9 9 9 9 9 9 9 9 9
WGst -- -- -- -- -- -- -- -- -- -- -- -- -- --
Raw TAF
TAF KGRK 150000Z 1500/1606 19009KT 9999 SKC QNH2981INS
  BECMG 1516/1517 20010G15KT 9999 SKC QNH2983INS
  BECMG 1523/1524 16009KT 9999 SKC QNH2983INS TX41/1520Z TN26/1512Z


Raw METAR
KGRK 150058Z AUTO 14014KT 10SM CLR 37/14 A2982 RMK AO2 SLP084 T03680135
KGRK 142358Z AUTO 16011KT 10SM CLR 39/12 A2981 RMK AO2 SLP081 T03940115 10410 20371 56013
KGRK 142258Z AUTO 14010KT 10SM CLR 40/13 A2981 RMK AO2 SLP080 T04010129

METAR Board
For situational awareness. Not to be used for flight planning purposes.